sensor_id;sensor_type;location;lat;lon;timestamp;P1;durP1;ratioP1;P2;durP2;ratioP2
23745;SDS011;12053;48.878;9.632;2022-12-07T00:01:10;19.48;;;14.13;;
23745;SDS011;12053;48.878;9.632;2022-12-07T00:03:38;27.58;;;15.23;;
23745;SDS011;12053;48.878;9.632;2022-12-07T00:06:06;20.25;;;14.45;;
23745;SDS011;12053;48.878;9.632;2022-12-07T00:08:33;19.92;;;14.88;;
23745;SDS011;12053;48.878;9.632;2022-12-07T00:11:11;22.40;;;15.18;;
23745;SDS011;12053;48.878;9.632;2022-12-07T00:13:39;23.05;;;15.88;;
23745;SDS011;12053;48.878;9.632;2022-12-07T00:16:11;24.63;;;16.58;;
23745;SDS011;12053;48.878;9.632;2022-12-07T00:18:39;22.63;;;16.05;;
23745;SDS011;12053;48.878;9.632;2022-12-07T00:23:36;23.17;;;15.85;;
23745;SDS011;12053;48.878;9.632;2022-12-07T00:26:07;24.65;;;16.73;;
23745;SDS011;12053;48.878;9.632;2022-12-07T00:28:35;22.38;;;15.88;;
23745;SDS011;12053;48.878;9.632;2022-12-07T00:31:03;23.88;;;16.13;;
23745;SDS011;12053;48.878;9.632;2022-12-07T00:33:31;23.48;;;16.83;;
23745;SDS011;12053;48.878;9.632;2022-12-07T00:35:58;23.92;;;17.05;;
23745;SDS011;12053;48.878;9.632;2022-12-07T00:38:27;21.92;;;14.65;;
23745;SDS011;12053;48.878;9.632;2022-12-07T00:40:55;22.48;;;16.33;;
23745;SDS011;12053;48.878;9.632;2022-12-07T00:43:23;22.48;;;15.70;;
23745;SDS011;12053;48.878;9.632;2022-12-07T00:45:50;21.42;;;14.57;;
23745;SDS011;12053;48.878;9.632;2022-12-07T00:48:17;23.38;;;14.93;;
23745;SDS011;12053;48.878;9.632;2022-12-07T00:50:44;21.10;;;14.95;;
23745;SDS011;12053;48.878;9.632;2022-12-07T00:53:12;19.35;;;14.30;;
23745;SDS011;12053;48.878;9.632;2022-12-07T00:55:39;19.02;;;14.75;;
23745;SDS011;12053;48.878;9.632;2022-12-07T00:58:06;22.90;;;15.63;;
23745;SDS011;12053;48.878;9.632;2022-12-07T01:00:35;19.42;;;14.18;;
23745;SDS011;12053;48.878;9.632;2022-12-07T01:03:03;21.70;;;15.82;;
23745;SDS011;12053;48.878;9.632;2022-12-07T01:05:32;23.98;;;15.95;;
23745;SDS011;12053;48.878;9.632;2022-12-07T01:07:59;23.50;;;16.50;;
23745;SDS011;12053;48.878;9.632;2022-12-07T01:10:27;23.08;;;16.50;;
23745;SDS011;12053;48.878;9.632;2022-12-07T01:12:56;22.63;;;16.65;;
23745;SDS011;12053;48.878;9.632;2022-12-07T01:15:23;25.70;;;17.95;;
23745;SDS011;12053;48.878;9.632;2022-12-07T01:17:50;26.38;;;18.75;;
23745;SDS011;12053;48.878;9.632;2022-12-07T01:20:18;24.35;;;17.58;;
23745;SDS011;12053;48.878;9.632;2022-12-07T01:22:45;25.55;;;17.92;;
23745;SDS011;12053;48.878;9.632;2022-12-07T01:25:12;28.05;;;17.27;;
23745;SDS011;12053;48.878;9.632;2022-12-07T01:27:39;28.48;;;18.10;;
23745;SDS011;12053;48.878;9.632;2022-12-07T01:30:07;25.88;;;18.08;;
23745;SDS011;12053;48.878;9.632;2022-12-07T01:32:34;23.88;;;16.83;;
23745;SDS011;12053;48.878;9.632;2022-12-07T01:35:01;25.13;;;17.30;;
23745;SDS011;12053;48.878;9.632;2022-12-07T01:37:33;25.02;;;16.80;;
23745;SDS011;12053;48.878;9.632;2022-12-07T01:40:00;22.10;;;15.48;;
23745;SDS011;12053;48.878;9.632;2022-12-07T01:42:28;21.95;;;15.80;;
23745;SDS011;12053;48.878;9.632;2022-12-07T01:47:41;22.67;;;15.10;;
23745;SDS011;12053;48.878;9.632;2022-12-07T01:50:10;21.50;;;15.32;;
23745;SDS011;12053;48.878;9.632;2022-12-07T01:52:37;18.98;;;13.45;;
23745;SDS011;12053;48.878;9.632;2022-12-07T01:55:07;18.17;;;12.57;;
23745;SDS011;12053;48.878;9.632;2022-12-07T01:57:37;19.85;;;13.68;;
23745;SDS011;12053;48.878;9.632;2022-12-07T02:00:05;21.42;;;14.63;;
23745;SDS011;12053;48.878;9.632;2022-12-07T02:02:34;19.88;;;14.40;;
23745;SDS011;12053;48.878;9.632;2022-12-07T02:05:02;20.13;;;13.30;;
23745;SDS011;12053;48.878;9.632;2022-12-07T02:07:30;21.20;;;14.55;;
23745;SDS011;12053;48.878;9.632;2022-12-07T02:10:11;20.75;;;13.63;;
23745;SDS011;12053;48.878;9.632;2022-12-07T02:12:38;21.77;;;13.82;;
23745;SDS011;12053;48.878;9.632;2022-12-07T02:15:06;21.10;;;13.90;;
23745;SDS011;12053;48.878;9.632;2022-12-07T02:17:37;20.92;;;14.00;;
23745;SDS011;12053;48.878;9.632;2022-12-07T02:25:14;23.48;;;14.85;;
23745;SDS011;12053;48.878;9.632;2022-12-07T02:27:50;22.30;;;15.05;;
23745;SDS011;12053;48.878;9.632;2022-12-07T02:30:20;22.10;;;14.47;;
23745;SDS011;12053;48.878;9.632;2022-12-07T02:33:04;21.40;;;13.80;;
23745;SDS011;12053;48.878;9.632;2022-12-07T02:35:33;22.90;;;15.20;;
23745;SDS011;12053;48.878;9.632;2022-12-07T02:40:38;22.67;;;15.43;;
23745;SDS011;12053;48.878;9.632;2022-12-07T02:43:08;22.20;;;13.52;;
23745;SDS011;12053;48.878;9.632;2022-12-07T02:45:38;22.73;;;14.23;;
23745;SDS011;12053;48.878;9.632;2022-12-07T02:48:06;22.58;;;15.05;;
23745;SDS011;12053;48.878;9.632;2022-12-07T02:50:34;23.05;;;15.20;;
23745;SDS011;12053;48.878;9.632;2022-12-07T02:53:01;25.35;;;15.75;;
23745;SDS011;12053;48.878;9.632;2022-12-07T02:55:29;27.30;;;16.83;;
23745;SDS011;12053;48.878;9.632;2022-12-07T03:00:36;25.13;;;16.35;;
23745;SDS011;12053;48.878;9.632;2022-12-07T03:03:08;29.27;;;17.60;;
23745;SDS011;12053;48.878;9.632;2022-12-07T03:13:34;26.15;;;15.80;;
23745;SDS011;12053;48.878;9.632;2022-12-07T03:16:25;26.60;;;16.33;;
23745;SDS011;12053;48.878;9.632;2022-12-07T03:18:55;26.20;;;15.93;;
23745;SDS011;12053;48.878;9.632;2022-12-07T03:21:31;27.40;;;17.48;;
23745;SDS011;12053;48.878;9.632;2022-12-07T03:24:00;29.08;;;16.35;;
23745;SDS011;12053;48.878;9.632;2022-12-07T03:26:37;24.52;;;15.82;;
23745;SDS011;12053;48.878;9.632;2022-12-07T03:29:07;23.63;;;14.88;;
23745;SDS011;12053;48.878;9.632;2022-12-07T03:31:38;23.60;;;15.45;;
23745;SDS011;12053;48.878;9.632;2022-12-07T03:34:53;25.02;;;15.82;;
23745;SDS011;12053;48.878;9.632;2022-12-07T03:36:55;23.30;;;13.65;;
23745;SDS011;12053;48.878;9.632;2022-12-07T03:39:37;23.55;;;14.80;;
23745;SDS011;12053;48.878;9.632;2022-12-07T03:42:07;24.92;;;14.98;;
23745;SDS011;12053;48.878;9.632;2022-12-07T03:44:35;25.33;;;16.15;;
23745;SDS011;12053;48.878;9.632;2022-12-07T03:47:09;23.73;;;15.35;;
23745;SDS011;12053;48.878;9.632;2022-12-07T03:49:46;25.90;;;16.08;;
23745;SDS011;12053;48.878;9.632;2022-12-07T03:55:48;22.85;;;14.52;;
23745;SDS011;12053;48.878;9.632;2022-12-07T03:57:51;20.13;;;12.70;;
23745;SDS011;12053;48.878;9.632;2022-12-07T04:00:20;20.45;;;12.65;;
23745;SDS011;12053;48.878;9.632;2022-12-07T04:02:47;25.77;;;15.52;;
23745;SDS011;12053;48.878;9.632;2022-12-07T04:05:17;24.83;;;15.82;;
23745;SDS011;12053;48.878;9.632;2022-12-07T04:07:45;25.88;;;15.45;;
23745;SDS011;12053;48.878;9.632;2022-12-07T04:10:12;22.08;;;14.68;;
23745;SDS011;12053;48.878;9.632;2022-12-07T04:12:39;28.15;;;16.50;;
23745;SDS011;12053;48.878;9.632;2022-12-07T04:15:07;25.80;;;15.65;;
23745;SDS011;12053;48.878;9.632;2022-12-07T04:17:34;25.88;;;16.95;;
23745;SDS011;12053;48.878;9.632;2022-12-07T04:20:02;28.23;;;17.67;;
23745;SDS011;12053;48.878;9.632;2022-12-07T04:22:30;31.48;;;18.70;;
23745;SDS011;12053;48.878;9.632;2022-12-07T04:24:57;34.50;;;19.30;;
23745;SDS011;12053;48.878;9.632;2022-12-07T04:27:25;34.45;;;20.20;;
23745;SDS011;12053;48.878;9.632;2022-12-07T04:29:52;39.28;;;20.52;;
23745;SDS011;12053;48.878;9.632;2022-12-07T04:32:22;38.67;;;20.67;;
23745;SDS011;12053;48.878;9.632;2022-12-07T04:34:49;33.13;;;20.10;;
23745;SDS011;12053;48.878;9.632;2022-12-07T04:37:21;33.97;;;20.42;;
23745;SDS011;12053;48.878;9.632;2022-12-07T04:39:48;34.70;;;18.52;;
23745;SDS011;12053;48.878;9.632;2022-12-07T04:42:15;30.58;;;17.02;;
23745;SDS011;12053;48.878;9.632;2022-12-07T04:44:42;31.73;;;19.20;;
23745;SDS011;12053;48.878;9.632;2022-12-07T04:47:10;30.17;;;18.00;;
23745;SDS011;12053;48.878;9.632;2022-12-07T04:49:38;30.70;;;18.27;;
23745;SDS011;12053;48.878;9.632;2022-12-07T04:52:05;35.47;;;19.77;;
23745;SDS011;12053;48.878;9.632;2022-12-07T04:54:32;31.08;;;18.85;;
23745;SDS011;12053;48.878;9.632;2022-12-07T04:56:59;35.25;;;19.38;;
23745;SDS011;12053;48.878;9.632;2022-12-07T04:59:27;41.17;;;21.05;;
23745;SDS011;12053;48.878;9.632;2022-12-07T05:01:54;41.42;;;22.85;;
23745;SDS011;12053;48.878;9.632;2022-12-07T05:04:21;40.85;;;21.02;;
23745;SDS011;12053;48.878;9.632;2022-12-07T05:06:48;43.20;;;22.67;;
23745;SDS011;12053;48.878;9.632;2022-12-07T05:09:15;42.58;;;19.73;;
23745;SDS011;12053;48.878;9.632;2022-12-07T05:11:43;42.95;;;22.48;;
23745;SDS011;12053;48.878;9.632;2022-12-07T05:14:17;40.67;;;21.10;;
23745;SDS011;12053;48.878;9.632;2022-12-07T05:16:45;35.35;;;20.40;;
23745;SDS011;12053;48.878;9.632;2022-12-07T05:19:13;40.88;;;21.15;;
23745;SDS011;12053;48.878;9.632;2022-12-07T05:21:41;45.50;;;23.42;;
23745;SDS011;12053;48.878;9.632;2022-12-07T05:24:09;37.88;;;21.50;;
23745;SDS011;12053;48.878;9.632;2022-12-07T05:26:37;37.17;;;19.98;;
23745;SDS011;12053;48.878;9.632;2022-12-07T05:29:04;35.45;;;19.05;;
23745;SDS011;12053;48.878;9.632;2022-12-07T05:31:31;35.17;;;19.90;;
23745;SDS011;12053;48.878;9.632;2022-12-07T05:33:59;36.47;;;20.77;;
23745;SDS011;12053;48.878;9.632;2022-12-07T05:36:26;31.85;;;19.02;;
23745;SDS011;12053;48.878;9.632;2022-12-07T05:38:54;30.77;;;18.60;;
23745;SDS011;12053;48.878;9.632;2022-12-07T05:41:22;35.92;;;19.60;;
23745;SDS011;12053;48.878;9.632;2022-12-07T05:44:07;30.15;;;17.98;;
23745;SDS011;12053;48.878;9.632;2022-12-07T05:46:35;30.90;;;18.88;;
23745;SDS011;12053;48.878;9.632;2022-12-07T05:49:02;30.27;;;18.65;;
23745;SDS011;12053;48.878;9.632;2022-12-07T05:51:29;33.00;;;19.58;;
23745;SDS011;12053;48.878;9.632;2022-12-07T05:53:56;32.30;;;18.85;;
23745;SDS011;12053;48.878;9.632;2022-12-07T05:56:24;31.75;;;19.60;;
23745;SDS011;12053;48.878;9.632;2022-12-07T05:58:52;42.05;;;23.27;;
23745;SDS011;12053;48.878;9.632;2022-12-07T06:01:39;41.95;;;26.92;;
23745;SDS011;12053;48.878;9.632;2022-12-07T06:04:06;33.03;;;19.23;;
23745;SDS011;12053;48.878;9.632;2022-12-07T06:06:33;31.05;;;17.30;;
23745;SDS011;12053;48.878;9.632;2022-12-07T06:09:01;36.97;;;20.90;;
23745;SDS011;12053;48.878;9.632;2022-12-07T06:11:29;29.25;;;17.38;;
23745;SDS011;12053;48.878;9.632;2022-12-07T06:14:15;29.30;;;18.23;;
23745;SDS011;12053;48.878;9.632;2022-12-07T06:16:42;29.42;;;16.23;;
23745;SDS011;12053;48.878;9.632;2022-12-07T06:19:09;29.95;;;17.05;;
23745;SDS011;12053;48.878;9.632;2022-12-07T06:21:36;30.52;;;17.98;;
23745;SDS011;12053;48.878;9.632;2022-12-07T06:24:04;29.33;;;16.50;;
23745;SDS011;12053;48.878;9.632;2022-12-07T06:26:31;27.30;;;16.23;;
23745;SDS011;12053;48.878;9.632;2022-12-07T06:28:58;30.15;;;17.77;;
23745;SDS011;12053;48.878;9.632;2022-12-07T06:31:25;30.45;;;17.27;;
23745;SDS011;12053;48.878;9.632;2022-12-07T06:34:02;28.90;;;18.33;;
23745;SDS011;12053;48.878;9.632;2022-12-07T06:36:30;27.20;;;16.60;;
23745;SDS011;12053;48.878;9.632;2022-12-07T06:38:57;27.40;;;17.05;;
23745;SDS011;12053;48.878;9.632;2022-12-07T06:41:25;28.30;;;17.58;;
23745;SDS011;12053;48.878;9.632;2022-12-07T06:43:52;26.90;;;15.93;;
23745;SDS011;12053;48.878;9.632;2022-12-07T06:46:21;24.63;;;16.15;;
23745;SDS011;12053;48.878;9.632;2022-12-07T06:48:49;26.73;;;15.48;;
23745;SDS011;12053;48.878;9.632;2022-12-07T06:51:16;31.08;;;16.02;;
23745;SDS011;12053;48.878;9.632;2022-12-07T06:53:43;26.00;;;15.95;;
23745;SDS011;12053;48.878;9.632;2022-12-07T06:56:10;25.55;;;15.45;;
23745;SDS011;12053;48.878;9.632;2022-12-07T06:58:38;23.48;;;15.07;;
23745;SDS011;12053;48.878;9.632;2022-12-07T07:01:09;28.00;;;16.75;;
23745;SDS011;12053;48.878;9.632;2022-12-07T07:03:37;26.92;;;17.05;;
23745;SDS011;12053;48.878;9.632;2022-12-07T07:06:04;25.23;;;15.52;;
23745;SDS011;12053;48.878;9.632;2022-12-07T07:08:33;25.40;;;15.27;;
23745;SDS011;12053;48.878;9.632;2022-12-07T07:11:01;27.02;;;15.35;;
23745;SDS011;12053;48.878;9.632;2022-12-07T07:13:28;21.50;;;13.63;;
23745;SDS011;12053;48.878;9.632;2022-12-07T07:15:55;24.25;;;15.65;;
23745;SDS011;12053;48.878;9.632;2022-12-07T07:18:23;21.88;;;14.27;;
23745;SDS011;12053;48.878;9.632;2022-12-07T07:20:50;26.08;;;14.32;;
23745;SDS011;12053;48.878;9.632;2022-12-07T07:23:18;22.73;;;14.00;;
23745;SDS011;12053;48.878;9.632;2022-12-07T07:25:45;21.05;;;14.50;;
23745;SDS011;12053;48.878;9.632;2022-12-07T07:28:13;20.50;;;13.73;;
23745;SDS011;12053;48.878;9.632;2022-12-07T07:30:40;20.52;;;13.15;;
23745;SDS011;12053;48.878;9.632;2022-12-07T07:33:08;19.15;;;12.02;;
23745;SDS011;12053;48.878;9.632;2022-12-07T07:35:36;18.98;;;12.88;;
23745;SDS011;12053;48.878;9.632;2022-12-07T07:38:03;19.00;;;12.45;;
23745;SDS011;12053;48.878;9.632;2022-12-07T07:40:30;20.58;;;13.05;;
23745;SDS011;12053;48.878;9.632;2022-12-07T07:42:57;17.73;;;11.45;;
23745;SDS011;12053;48.878;9.632;2022-12-07T07:45:25;21.58;;;13.05;;
23745;SDS011;12053;48.878;9.632;2022-12-07T07:47:53;21.33;;;13.48;;
23745;SDS011;12053;48.878;9.632;2022-12-07T07:50:20;20.73;;;13.60;;
23745;SDS011;12053;48.878;9.632;2022-12-07T07:52:48;20.13;;;12.27;;
23745;SDS011;12053;48.878;9.632;2022-12-07T07:55:15;18.80;;;12.73;;
23745;SDS011;12053;48.878;9.632;2022-12-07T07:57:43;18.55;;;12.45;;
23745;SDS011;12053;48.878;9.632;2022-12-07T08:00:18;15.55;;;11.15;;
23745;SDS011;12053;48.878;9.632;2022-12-07T08:02:45;20.13;;;11.48;;
23745;SDS011;12053;48.878;9.632;2022-12-07T08:05:12;17.75;;;12.48;;
23745;SDS011;12053;48.878;9.632;2022-12-07T08:07:40;20.45;;;12.48;;
23745;SDS011;12053;48.878;9.632;2022-12-07T08:10:09;18.13;;;12.07;;
23745;SDS011;12053;48.878;9.632;2022-12-07T08:12:37;16.85;;;11.35;;
23745;SDS011;12053;48.878;9.632;2022-12-07T08:15:25;15.05;;;10.13;;
23745;SDS011;12053;48.878;9.632;2022-12-07T08:17:53;15.65;;;10.40;;
23745;SDS011;12053;48.878;9.632;2022-12-07T08:20:20;18.30;;;11.52;;
23745;SDS011;12053;48.878;9.632;2022-12-07T08:22:47;16.23;;;11.43;;
23745;SDS011;12053;48.878;9.632;2022-12-07T08:25:15;15.05;;;10.43;;
23745;SDS011;12053;48.878;9.632;2022-12-07T08:27:42;17.27;;;10.63;;
23745;SDS011;12053;48.878;9.632;2022-12-07T08:30:09;15.32;;;10.40;;
23745;SDS011;12053;48.878;9.632;2022-12-07T08:32:37;14.98;;;10.32;;
23745;SDS011;12053;48.878;9.632;2022-12-07T08:35:04;16.30;;;9.98;;
23745;SDS011;12053;48.878;9.632;2022-12-07T08:37:32;14.88;;;10.57;;
23745;SDS011;12053;48.878;9.632;2022-12-07T08:39:59;14.98;;;9.60;;
23745;SDS011;12053;48.878;9.632;2022-12-07T08:42:27;15.65;;;9.77;;
23745;SDS011;12053;48.878;9.632;2022-12-07T08:44:56;14.75;;;9.75;;
23745;SDS011;12053;48.878;9.632;2022-12-07T08:47:23;16.00;;;10.05;;
23745;SDS011;12053;48.878;9.632;2022-12-07T08:49:51;15.55;;;10.25;;
23745;SDS011;12053;48.878;9.632;2022-12-07T08:52:19;15.82;;;10.70;;
23745;SDS011;12053;48.878;9.632;2022-12-07T08:54:47;13.80;;;9.77;;
23745;SDS011;12053;48.878;9.632;2022-12-07T08:57:14;14.57;;;9.57;;
23745;SDS011;12053;48.878;9.632;2022-12-07T08:59:41;13.40;;;9.00;;
23745;SDS011;12053;48.878;9.632;2022-12-07T09:02:09;12.73;;;8.85;;
23745;SDS011;12053;48.878;9.632;2022-12-07T09:04:36;15.98;;;9.50;;
23745;SDS011;12053;48.878;9.632;2022-12-07T09:07:03;15.25;;;9.13;;
23745;SDS011;12053;48.878;9.632;2022-12-07T09:09:31;13.40;;;9.15;;
23745;SDS011;12053;48.878;9.632;2022-12-07T09:11:59;12.88;;;8.50;;
23745;SDS011;12053;48.878;9.632;2022-12-07T09:14:26;13.02;;;8.77;;
23745;SDS011;12053;48.878;9.632;2022-12-07T09:16:53;12.38;;;8.57;;
23745;SDS011;12053;48.878;9.632;2022-12-07T09:19:20;13.95;;;8.73;;
23745;SDS011;12053;48.878;9.632;2022-12-07T09:21:48;13.38;;;7.70;;
23745;SDS011;12053;48.878;9.632;2022-12-07T09:24:15;13.52;;;8.90;;
23745;SDS011;12053;48.878;9.632;2022-12-07T09:26:42;13.73;;;8.77;;
23745;SDS011;12053;48.878;9.632;2022-12-07T09:29:10;11.77;;;8.18;;
23745;SDS011;12053;48.878;9.632;2022-12-07T09:31:37;13.95;;;8.57;;
23745;SDS011;12053;48.878;9.632;2022-12-07T09:34:05;12.43;;;7.95;;
23745;SDS011;12053;48.878;9.632;2022-12-07T09:36:33;13.10;;;8.02;;
23745;SDS011;12053;48.878;9.632;2022-12-07T09:39:01;12.88;;;8.50;;
23745;SDS011;12053;48.878;9.632;2022-12-07T09:41:29;14.60;;;8.93;;
23745;SDS011;12053;48.878;9.632;2022-12-07T09:44:00;13.73;;;8.32;;
23745;SDS011;12053;48.878;9.632;2022-12-07T09:46:29;15.27;;;8.77;;
23745;SDS011;12053;48.878;9.632;2022-12-07T09:49:01;14.50;;;9.37;;
23745;SDS011;12053;48.878;9.632;2022-12-07T09:51:28;15.55;;;9.93;;
23745;SDS011;12053;48.878;9.632;2022-12-07T09:53:56;16.17;;;8.63;;
23745;SDS011;12053;48.878;9.632;2022-12-07T09:56:24;14.57;;;8.68;;
23745;SDS011;12053;48.878;9.632;2022-12-07T09:58:54;12.43;;;8.05;;
23745;SDS011;12053;48.878;9.632;2022-12-07T10:01:27;12.27;;;7.10;;
23745;SDS011;12053;48.878;9.632;2022-12-07T10:03:59;11.43;;;8.25;;
23745;SDS011;12053;48.878;9.632;2022-12-07T10:06:27;12.80;;;8.15;;
23745;SDS011;12053;48.878;9.632;2022-12-07T10:08:55;11.13;;;8.32;;
23745;SDS011;12053;48.878;9.632;2022-12-07T10:11:22;13.23;;;8.02;;
23745;SDS011;12053;48.878;9.632;2022-12-07T10:13:51;12.68;;;7.82;;
23745;SDS011;12053;48.878;9.632;2022-12-07T10:18:51;13.02;;;8.32;;
23745;SDS011;12053;48.878;9.632;2022-12-07T10:21:22;14.27;;;8.38;;
23745;SDS011;12053;48.878;9.632;2022-12-07T10:24:13;10.52;;;7.68;;
23745;SDS011;12053;48.878;9.632;2022-12-07T10:31:41;10.93;;;6.97;;
23745;SDS011;12053;48.878;9.632;2022-12-07T10:34:20;11.38;;;7.10;;
23745;SDS011;12053;48.878;9.632;2022-12-07T10:36:50;9.43;;;6.90;;
23745;SDS011;12053;48.878;9.632;2022-12-07T10:39:19;8.88;;;6.97;;
23745;SDS011;12053;48.878;9.632;2022-12-07T10:44:27;8.40;;;6.20;;
23745;SDS011;12053;48.878;9.632;2022-12-07T10:55:15;10.95;;;7.10;;
23745;SDS011;12053;48.878;9.632;2022-12-07T11:00:15;12.00;;;7.10;;
23745;SDS011;12053;48.878;9.632;2022-12-07T11:05:19;11.65;;;7.22;;
23745;SDS011;12053;48.878;9.632;2022-12-07T11:13:22;18.02;;;11.38;;
23745;SDS011;12053;48.878;9.632;2022-12-07T11:21:20;32.63;;;17.80;;
23745;SDS011;12053;48.878;9.632;2022-12-07T11:36:54;11.88;;;7.03;;
23745;SDS011;12053;48.878;9.632;2022-12-07T11:41:52;11.32;;;6.57;;
23745;SDS011;12053;48.878;9.632;2022-12-07T11:44:26;11.13;;;6.90;;
23745;SDS011;12053;48.878;9.632;2022-12-07T11:47:00;11.27;;;6.03;;
23745;SDS011;12053;48.878;9.632;2022-12-07T11:49:51;10.00;;;6.95;;
23745;SDS011;12053;48.878;9.632;2022-12-07T11:54:54;9.18;;;6.65;;
23745;SDS011;12053;48.878;9.632;2022-12-07T11:57:25;10.57;;;7.00;;
23745;SDS011;12053;48.878;9.632;2022-12-07T11:59:57;10.60;;;7.28;;
23745;SDS011;12053;48.878;9.632;2022-12-07T12:02:28;11.43;;;6.90;;
23745;SDS011;12053;48.878;9.632;2022-12-07T12:07:35;10.50;;;6.93;;
23745;SDS011;12053;48.878;9.632;2022-12-07T12:10:35;14.00;;;7.13;;
23745;SDS011;12053;48.878;9.632;2022-12-07T12:16:13;12.60;;;7.47;;
23745;SDS011;12053;48.878;9.632;2022-12-07T12:18:57;12.32;;;7.63;;
23745;SDS011;12053;48.878;9.632;2022-12-07T12:21:31;10.10;;;6.78;;
23745;SDS011;12053;48.878;9.632;2022-12-07T12:26:27;33.38;;;21.25;;
23745;SDS011;12053;48.878;9.632;2022-12-07T12:29:00;11.93;;;8.27;;
23745;SDS011;12053;48.878;9.632;2022-12-07T12:31:36;13.07;;;7.72;;
23745;SDS011;12053;48.878;9.632;2022-12-07T12:36:51;12.23;;;7.43;;
23745;SDS011;12053;48.878;9.632;2022-12-07T12:39:18;11.13;;;7.40;;
23745;SDS011;12053;48.878;9.632;2022-12-07T12:57:26;10.02;;;7.40;;
23745;SDS011;12053;48.878;9.632;2022-12-07T13:02:22;12.90;;;6.80;;
23745;SDS011;12053;48.878;9.632;2022-12-07T13:04:55;10.52;;;6.97;;
23745;SDS011;12053;48.878;9.632;2022-12-07T13:15:39;11.35;;;7.55;;
23745;SDS011;12053;48.878;9.632;2022-12-07T13:20:57;11.20;;;7.05;;
23745;SDS011;12053;48.878;9.632;2022-12-07T13:23:32;10.40;;;7.28;;
23745;SDS011;12053;48.878;9.632;2022-12-07T13:28:35;11.02;;;8.63;;
23745;SDS011;12053;48.878;9.632;2022-12-07T13:31:18;10.27;;;8.00;;
23745;SDS011;12053;48.878;9.632;2022-12-07T13:33:47;12.18;;;9.00;;
23745;SDS011;12053;48.878;9.632;2022-12-07T13:36:21;14.75;;;9.10;;
23745;SDS011;12053;48.878;9.632;2022-12-07T13:38:56;10.82;;;8.13;;
23745;SDS011;12053;48.878;9.632;2022-12-07T13:41:25;12.02;;;8.25;;
23745;SDS011;12053;48.878;9.632;2022-12-07T13:43:55;13.75;;;8.30;;
23745;SDS011;12053;48.878;9.632;2022-12-07T13:46:40;12.73;;;8.63;;
23745;SDS011;12053;48.878;9.632;2022-12-07T13:49:19;13.38;;;8.40;;
23745;SDS011;12053;48.878;9.632;2022-12-07T13:51:47;14.38;;;8.50;;
23745;SDS011;12053;48.878;9.632;2022-12-07T13:54:15;14.40;;;8.63;;
23745;SDS011;12053;48.878;9.632;2022-12-07T13:56:48;14.70;;;8.68;;
23745;SDS011;12053;48.878;9.632;2022-12-07T13:59:18;17.35;;;10.65;;
23745;SDS011;12053;48.878;9.632;2022-12-07T14:01:46;14.43;;;9.52;;
23745;SDS011;12053;48.878;9.632;2022-12-07T14:06:48;18.13;;;10.32;;
23745;SDS011;12053;48.878;9.632;2022-12-07T14:09:20;14.95;;;10.15;;
23745;SDS011;12053;48.878;9.632;2022-12-07T14:11:49;43.95;;;24.42;;
23745;SDS011;12053;48.878;9.632;2022-12-07T14:14:18;17.02;;;11.23;;
23745;SDS011;12053;48.878;9.632;2022-12-07T14:17:09;16.40;;;11.60;;
23745;SDS011;12053;48.878;9.632;2022-12-07T14:19:43;15.33;;;11.23;;
23745;SDS011;12053;48.878;9.632;2022-12-07T14:22:28;16.50;;;9.82;;
23745;SDS011;12053;48.878;9.632;2022-12-07T14:25:32;16.00;;;10.63;;
23745;SDS011;12053;48.878;9.632;2022-12-07T14:30:22;17.58;;;11.05;;
23745;SDS011;12053;48.878;9.632;2022-12-07T14:32:51;16.75;;;11.02;;
23745;SDS011;12053;48.878;9.632;2022-12-07T14:35:19;17.27;;;10.80;;
23745;SDS011;12053;48.878;9.632;2022-12-07T14:37:47;16.08;;;11.25;;
23745;SDS011;12053;48.878;9.632;2022-12-07T14:40:21;15.23;;;10.07;;
23745;SDS011;12053;48.878;9.632;2022-12-07T14:42:50;15.75;;;10.55;;
23745;SDS011;12053;48.878;9.632;2022-12-07T14:45:19;18.08;;;11.25;;
23745;SDS011;12053;48.878;9.632;2022-12-07T14:47:47;20.00;;;13.27;;
23745;SDS011;12053;48.878;9.632;2022-12-07T14:50:35;15.75;;;10.57;;
23745;SDS011;12053;48.878;9.632;2022-12-07T14:53:06;16.08;;;11.38;;
23745;SDS011;12053;48.878;9.632;2022-12-07T14:55:51;19.13;;;12.95;;
23745;SDS011;12053;48.878;9.632;2022-12-07T14:58:19;22.42;;;14.43;;
23745;SDS011;12053;48.878;9.632;2022-12-07T15:00:46;18.42;;;12.80;;
23745;SDS011;12053;48.878;9.632;2022-12-07T15:03:13;21.08;;;15.18;;
23745;SDS011;12053;48.878;9.632;2022-12-07T15:05:41;23.45;;;13.52;;
23745;SDS011;12053;48.878;9.632;2022-12-07T15:08:08;19.77;;;12.40;;
23745;SDS011;12053;48.878;9.632;2022-12-07T15:10:36;17.98;;;12.48;;
23745;SDS011;12053;48.878;9.632;2022-12-07T15:13:05;19.80;;;12.05;;
23745;SDS011;12053;48.878;9.632;2022-12-07T15:15:51;17.50;;;11.55;;
23745;SDS011;12053;48.878;9.632;2022-12-07T15:18:19;17.92;;;12.13;;
23745;SDS011;12053;48.878;9.632;2022-12-07T15:20:47;15.25;;;11.13;;
23745;SDS011;12053;48.878;9.632;2022-12-07T15:23:14;20.02;;;12.52;;
23745;SDS011;12053;48.878;9.632;2022-12-07T15:25:42;19.80;;;11.48;;
23745;SDS011;12053;48.878;9.632;2022-12-07T15:28:09;20.95;;;13.70;;
23745;SDS011;12053;48.878;9.632;2022-12-07T15:30:37;20.73;;;13.07;;
23745;SDS011;12053;48.878;9.632;2022-12-07T15:33:04;21.20;;;12.65;;
23745;SDS011;12053;48.878;9.632;2022-12-07T15:35:32;20.88;;;13.32;;
23745;SDS011;12053;48.878;9.632;2022-12-07T15:38:02;18.58;;;12.65;;
23745;SDS011;12053;48.878;9.632;2022-12-07T15:40:30;17.10;;;11.65;;
23745;SDS011;12053;48.878;9.632;2022-12-07T15:42:58;16.73;;;11.07;;
23745;SDS011;12053;48.878;9.632;2022-12-07T15:45:28;19.90;;;12.57;;
23745;SDS011;12053;48.878;9.632;2022-12-07T15:47:55;18.77;;;12.07;;
23745;SDS011;12053;48.878;9.632;2022-12-07T15:50:43;20.15;;;12.23;;
23745;SDS011;12053;48.878;9.632;2022-12-07T15:53:10;20.33;;;12.63;;
23745;SDS011;12053;48.878;9.632;2022-12-07T15:55:38;19.08;;;12.20;;
23745;SDS011;12053;48.878;9.632;2022-12-07T15:58:06;19.45;;;11.95;;
23745;SDS011;12053;48.878;9.632;2022-12-07T16:00:34;21.88;;;14.38;;
23745;SDS011;12053;48.878;9.632;2022-12-07T16:03:01;23.17;;;14.40;;
23745;SDS011;12053;48.878;9.632;2022-12-07T16:05:29;28.08;;;16.25;;
23745;SDS011;12053;48.878;9.632;2022-12-07T16:07:56;20.40;;;13.43;;
23745;SDS011;12053;48.878;9.632;2022-12-07T16:10:23;20.85;;;13.30;;
23745;SDS011;12053;48.878;9.632;2022-12-07T16:12:50;19.13;;;12.30;;
23745;SDS011;12053;48.878;9.632;2022-12-07T16:15:18;22.17;;;12.63;;
23745;SDS011;12053;48.878;9.632;2022-12-07T16:17:50;25.83;;;14.13;;
23745;SDS011;12053;48.878;9.632;2022-12-07T16:20:18;20.77;;;12.93;;
23745;SDS011;12053;48.878;9.632;2022-12-07T16:22:46;22.25;;;13.35;;
23745;SDS011;12053;48.878;9.632;2022-12-07T16:25:13;20.67;;;12.07;;
23745;SDS011;12053;48.878;9.632;2022-12-07T16:27:40;25.17;;;14.30;;
23745;SDS011;12053;48.878;9.632;2022-12-07T16:30:08;25.55;;;15.15;;
23745;SDS011;12053;48.878;9.632;2022-12-07T16:32:36;19.65;;;13.48;;
23745;SDS011;12053;48.878;9.632;2022-12-07T16:35:03;25.90;;;14.68;;
23745;SDS011;12053;48.878;9.632;2022-12-07T16:37:34;27.08;;;16.20;;
23745;SDS011;12053;48.878;9.632;2022-12-07T16:40:10;22.92;;;15.52;;
23745;SDS011;12053;48.878;9.632;2022-12-07T16:42:38;24.25;;;14.05;;
23745;SDS011;12053;48.878;9.632;2022-12-07T16:45:05;25.90;;;14.48;;
23745;SDS011;12053;48.878;9.632;2022-12-07T16:47:33;24.58;;;14.88;;